Time;durP1;ratioP1;P1;durP2;ratioP2;P2;SDS_P1;SDS_P2;PMS_P1;PMS_P2;Temp;Humidity;BMP_temperature;BMP_pressure;BME280_temperature;BME280_humidity;BME280_pressure;Samples;Min_cycle;Max_cycle;Signal;HPM_P1;HPM_P2
2020/12/07 00:01:47;;;;;;;15.30;10.68;;;;;;;;;;5024439;28;20393;-89
2020/12/07 00:04:13;;;;;;;16.67;11.68;;;;;;;;;;5020481;28;20049;-89
2020/12/07 00:06:41;;;;;;;12.32;8.93;;;;;;;;;;5036175;28;20060;-90
2020/12/07 00:09:07;;;;;;;12.80;9.80;;;;;;;;;;5017979;28;20045;-89
2020/12/07 00:11:33;;;;;;;14.60;10.25;;;;;;;;;;5036280;28;20052;-89
2020/12/07 00:13:59;;;;;;;13.32;9.45;;;;;;;;;;5035089;28;20060;-89
2020/12/07 00:16:25;;;;;;;14.48;9.52;;;;;;;;;;5018761;28;20051;-89
2020/12/07 00:18:51;;;;;;;13.88;9.68;;;;;;;;;;5035964;28;20595;-90
2020/12/07 00:21:17;;;;;;;14.75;10.38;;;;;;;;;;5017903;28;20499;-90
2020/12/07 00:23:44;;;;;;;13.80;10.00;;;;;;;;;;5017912;28;21541;-90
2020/12/07 00:26:11;;;;;;;14.23;10.68;;;;;;;;;;4998674;28;20468;-90
2020/12/07 00:28:37;;;;;;;16.55;11.48;;;;;;;;;;4999887;28;20056;-89
2020/12/07 00:31:03;;;;;;;13.00;9.40;;;;;;;;;;5035661;28;20401;-89
2020/12/07 00:33:30;;;;;;;16.83;11.55;;;;;;;;;;5015919;28;20057;-90
2020/12/07 00:35:56;;;;;;;14.93;9.85;;;;;;;;;;5046769;28;20056;-89
2020/12/07 00:38:22;;;;;;;14.25;10.00;;;;;;;;;;5023976;28;20416;-89
2020/12/07 00:40:48;;;;;;;18.13;10.63;;;;;;;;;;5055300;28;20048;-89
2020/12/07 00:43:14;;;;;;;14.20;10.18;;;;;;;;;;5055454;28;20052;-89
2020/12/07 00:45:41;;;;;;;17.17;10.25;;;;;;;;;;5020874;28;20088;-89
2020/12/07 00:48:07;;;;;;;12.52;10.15;;;;;;;;;;5037960;28;20159;-89
2020/12/07 00:50:33;;;;;;;12.82;9.70;;;;;;;;;;5037837;28;20511;-89
2020/12/07 00:52:59;;;;;;;13.13;9.10;;;;;;;;;;5037741;28;20053;-89
2020/12/07 00:55:25;;;;;;;13.20;9.18;;;;;;;;;;5031667;28;20049;-89
2020/12/07 00:57:52;;;;;;;13.00;8.70;;;;;;;;;;5036102;28;20556;-88
2020/12/07 01:00:18;;;;;;;12.00;8.25;;;;;;;;;;5002150;28;20632;-88
2020/12/07 01:02:44;;;;;;;11.80;8.70;;;;;;;;;;5035252;28;20052;-88
2020/12/07 01:05:10;;;;;;;12.55;9.25;;;;;;;;;;5035546;28;20562;-89
2020/12/07 01:07:36;;;;;;;11.40;8.68;;;;;;;;;;5021767;28;20420;-89
2020/12/07 01:10:03;;;;;;;13.93;10.07;;;;;;;;;;5021373;28;20579;-90
2020/12/07 01:12:29;;;;;;;16.40;11.55;;;;;;;;;;5038093;28;20056;-89
2020/12/07 01:14:56;;;;;;;11.93;9.15;;;;;;;;;;5020870;28;20084;-88
2020/12/07 01:17:23;;;;;;;16.00;10.95;;;;;;;;;;5037318;28;20049;-89
2020/12/07 01:19:49;;;;;;;14.93;10.45;;;;;;;;;;5036559;28;20059;-89
2020/12/07 01:22:15;;;;;;;12.63;9.05;;;;;;;;;;5054678;28;20053;-89
2020/12/07 01:24:41;;;;;;;13.55;9.85;;;;;;;;;;5019512;28;20060;-89
2020/12/07 01:27:07;;;;;;;12.02;8.85;;;;;;;;;;5036723;28;20463;-89
2020/12/07 01:29:34;;;;;;;12.68;8.93;;;;;;;;;;5036543;28;20049;-89
2020/12/07 01:32:01;;;;;;;12.38;8.38;;;;;;;;;;5036807;28;20060;-89
2020/12/07 01:34:27;;;;;;;11.90;8.60;;;;;;;;;;5036709;28;20052;-89
2020/12/07 01:36:53;;;;;;;13.40;8.60;;;;;;;;;;5035913;28;20060;-89
2020/12/07 01:39:19;;;;;;;13.32;8.38;;;;;;;;;;5019848;28;20044;-89
2020/12/07 01:41:45;;;;;;;12.43;8.68;;;;;;;;;;5042775;28;20140;-90
2020/12/07 01:44:11;;;;;;;12.02;8.10;;;;;;;;;;5016427;28;20057;-89
2020/12/07 01:46:38;;;;;;;11.70;8.73;;;;;;;;;;5015968;28;20053;-89
2020/12/07 01:49:05;;;;;;;13.55;8.52;;;;;;;;;;5033579;28;20046;-89
2020/12/07 01:51:31;;;;;;;13.27;8.90;;;;;;;;;;5000305;28;20081;-89
2020/12/07 01:53:57;;;;;;;13.40;9.18;;;;;;;;;;5022523;28;20053;-89
2020/12/07 01:56:27;;;;;;;12.98;8.80;;;;;;;;;;5027232;28;20053;-89
2020/12/07 01:58:53;;;;;;;11.77;8.07;;;;;;;;;;5043077;28;20048;-90
2020/12/07 02:01:19;;;;;;;12.32;8.25;;;;;;;;;;5018141;28;20103;-90
2020/12/07 02:03:45;;;;;;;10.05;7.10;;;;;;;;;;5063369;23;20159;-88
2020/12/07 02:06:12;;;;;;;10.45;7.53;;;;;;;;;;5053841;28;20381;-88
2020/12/07 02:08:38;;;;;;;11.02;7.72;;;;;;;;;;5054424;28;20041;-88
2020/12/07 02:11:04;;;;;;;9.82;6.90;;;;;;;;;;5053564;28;20060;-88
2020/12/07 02:13:30;;;;;;;9.38;6.90;;;;;;;;;;5053276;28;20406;-88
2020/12/07 02:15:56;;;;;;;8.52;6.50;;;;;;;;;;5053498;28;20492;-88
2020/12/07 02:18:22;;;;;;;9.60;6.75;;;;;;;;;;5053166;28;20053;-88
2020/12/07 02:20:49;;;;;;;8.90;6.63;;;;;;;;;;5050247;28;20068;-88
2020/12/07 02:23:16;;;;;;;8.20;6.18;;;;;;;;;;5033155;28;20049;-87
2020/12/07 02:25:42;;;;;;;8.13;6.07;;;;;;;;;;5033170;28;20136;-88
2020/12/07 02:28:08;;;;;;;8.98;6.10;;;;;;;;;;5032974;28;20129;-88
2020/12/07 02:30:34;;;;;;;8.75;6.50;;;;;;;;;;5033419;28;20098;-88
2020/12/07 02:33:00;;;;;;;8.07;6.10;;;;;;;;;;5049228;28;20045;-88
2020/12/07 02:35:26;;;;;;;8.65;6.57;;;;;;;;;;5053360;28;20060;-88
2020/12/07 02:37:53;;;;;;;8.20;6.18;;;;;;;;;;5049908;28;20401;-88
2020/12/07 02:40:19;;;;;;;8.93;6.28;;;;;;;;;;5037287;28;20049;-88
2020/12/07 02:42:45;;;;;;;8.23;6.43;;;;;;;;;;5036952;28;20073;-88
2020/12/07 02:45:12;;;;;;;9.38;6.60;;;;;;;;;;5036771;28;20049;-88
2020/12/07 02:47:39;;;;;;;8.55;6.25;;;;;;;;;;5037034;28;20060;-88
2020/12/07 02:50:06;;;;;;;7.72;6.18;;;;;;;;;;5043494;28;20045;-88
2020/12/07 02:52:32;;;;;;;9.30;6.13;;;;;;;;;;5056753;28;20131;-88
2020/12/07 02:55:00;;;;;;;7.90;5.55;;;;;;;;;;5039240;28;20063;-88
2020/12/07 02:57:26;;;;;;;7.53;5.90;;;;;;;;;;5037017;28;20481;-88
2020/12/07 02:59:53;;;;;;;9.13;7.00;;;;;;;;;;5037008;28;20049;-88
2020/12/07 03:02:19;;;;;;;9.38;6.25;;;;;;;;;;5038792;28;20045;-87
2020/12/07 03:04:46;;;;;;;9.32;6.50;;;;;;;;;;5037683;28;20067;-88
2020/12/07 03:07:13;;;;;;;8.43;6.15;;;;;;;;;;5037342;28;20045;-88
2020/12/07 03:09:39;;;;;;;8.10;6.03;;;;;;;;;;5036812;28;20049;-88
2020/12/07 03:12:07;;;;;;;8.82;6.45;;;;;;;;;;5036970;28;20056;-88
2020/12/07 03:14:33;;;;;;;8.13;5.80;;;;;;;;;;5036268;28;20049;-88
2020/12/07 03:16:59;;;;;;;8.60;6.15;;;;;;;;;;5037321;28;20037;-88
2020/12/07 03:19:25;;;;;;;8.68;6.53;;;;;;;;;;5036965;28;20049;-88
2020/12/07 03:21:51;;;;;;;7.65;5.70;;;;;;;;;;5049179;28;20040;-88
2020/12/07 03:24:17;;;;;;;7.18;5.40;;;;;;;;;;5056104;28;20041;-89
2020/12/07 03:26:43;;;;;;;7.82;5.50;;;;;;;;;;5056134;28;20061;-89
2020/12/07 03:29:10;;;;;;;8.15;5.93;;;;;;;;;;5038632;28;20053;-88
2020/12/07 03:31:37;;;;;;;6.60;4.65;;;;;;;;;;5036238;28;20049;-89
2020/12/07 03:34:04;;;;;;;7.80;5.07;;;;;;;;;;5035771;28;20132;-89
2020/12/07 03:36:30;;;;;;;8.07;5.32;;;;;;;;;;5046137;28;20163;-88
2020/12/07 03:38:57;;;;;;;6.70;4.85;;;;;;;;;;5047041;28;20394;-89
2020/12/07 03:41:23;;;;;;;7.43;5.25;;;;;;;;;;5036096;28;20516;-88
2020/12/07 03:43:49;;;;;;;8.25;4.80;;;;;;;;;;5035871;28;20520;-88
2020/12/07 03:46:16;;;;;;;8.82;5.47;;;;;;;;;;5036053;28;20545;-88
2020/12/07 03:48:42;;;;;;;6.85;4.68;;;;;;;;;;5035216;28;20042;-88
2020/12/07 03:51:09;;;;;;;6.90;4.78;;;;;;;;;;5036520;28;20065;-88
2020/12/07 03:53:36;;;;;;;7.13;4.65;;;;;;;;;;5036329;28;20046;-88
2020/12/07 03:56:03;;;;;;;6.32;4.43;;;;;;;;;;5044843;28;20041;-88
2020/12/07 03:58:29;;;;;;;7.03;4.93;;;;;;;;;;5053780;28;20049;-88
2020/12/07 04:00:56;;;;;;;7.18;4.65;;;;;;;;;;5036382;28;20045;-88
2020/12/07 04:03:23;;;;;;;7.75;5.35;;;;;;;;;;5037401;28;20049;-88
2020/12/07 04:05:50;;;;;;;7.85;5.45;;;;;;;;;;5038711;28;20112;-88
2020/12/07 04:08:16;;;;;;;8.55;5.43;;;;;;;;;;5041362;28;20049;-89
2020/12/07 04:10:42;;;;;;;8.05;5.63;;;;;;;;;;5056849;28;20049;-88
2020/12/07 04:13:08;;;;;;;8.05;5.07;;;;;;;;;;5057338;28;20088;-88
2020/12/07 04:15:34;;;;;;;7.13;4.78;;;;;;;;;;5056897;28;20084;-88
2020/12/07 04:18:00;;;;;;;7.45;4.95;;;;;;;;;;5056239;28;20095;-89
2020/12/07 04:20:27;;;;;;;7.50;4.85;;;;;;;;;;5055800;28;20052;-88
2020/12/07 04:22:53;;;;;;;8.38;5.45;;;;;;;;;;5055848;28;20044;-88
2020/12/07 04:25:19;;;;;;;6.78;5.15;;;;;;;;;;5056008;28;20053;-88
2020/12/07 04:27:45;;;;;;;6.45;4.65;;;;;;;;;;5055416;28;20079;-89
2020/12/07 04:30:26;;;;;;;7.35;5.28;;;;;;;;;;5055192;28;20127;-88
2020/12/07 04:32:52;;;;;;;7.50;4.90;;;;;;;;;;5055401;28;20099;-89
2020/12/07 04:35:18;;;;;;;6.68;4.40;;;;;;;;;;5036297;28;20049;-88
2020/12/07 04:37:44;;;;;;;6.90;4.55;;;;;;;;;;5036559;28;20071;-88
2020/12/07 04:40:11;;;;;;;6.20;4.40;;;;;;;;;;5049323;28;20529;-88
2020/12/07 04:42:39;;;;;;;6.85;5.18;;;;;;;;;;5055730;28;20436;-88
2020/12/07 04:45:05;;;;;;;7.25;4.82;;;;;;;;;;5055076;28;20048;-89
2020/12/07 04:47:34;;;;;;;6.97;5.00;;;;;;;;;;5055212;28;20061;-88
2020/12/07 04:50:02;;;;;;;6.10;4.68;;;;;;;;;;5055520;28;20072;-88
2020/12/07 04:52:29;;;;;;;7.13;5.03;;;;;;;;;;5055775;28;20100;-88
2020/12/07 04:54:57;;;;;;;7.60;5.80;;;;;;;;;;5056546;28;20053;-88
2020/12/07 04:57:23;;;;;;;8.30;5.50;;;;;;;;;;5047429;28;20052;-88
2020/12/07 04:59:50;;;;;;;6.47;4.95;;;;;;;;;;5036140;28;20382;-88
2020/12/07 05:02:16;;;;;;;9.93;5.95;;;;;;;;;;5051561;28;20049;-87
2020/12/07 05:04:42;;;;;;;7.90;5.68;;;;;;;;;;5056103;28;20084;-88
2020/12/07 05:07:08;;;;;;;8.68;5.65;;;;;;;;;;5055823;28;20506;-87
2020/12/07 05:09:36;;;;;;;9.00;5.70;;;;;;;;;;5056333;28;20167;-87
2020/12/07 05:12:06;;;;;;;8.38;5.63;;;;;;;;;;5055927;28;20045;-87
2020/12/07 05:14:34;;;;;;;9.20;5.93;;;;;;;;;;5056318;28;20480;-87
2020/12/07 05:17:00;;;;;;;7.40;5.13;;;;;;;;;;5056518;28;20044;-88
2020/12/07 05:19:26;;;;;;;7.35;4.88;;;;;;;;;;5056211;28;20052;-88
2020/12/07 05:21:52;;;;;;;7.10;5.03;;;;;;;;;;5049995;28;20094;-88
2020/12/07 05:24:18;;;;;;;8.98;5.50;;;;;;;;;;5056399;28;20064;-88
2020/12/07 05:26:44;;;;;;;6.85;5.32;;;;;;;;;;5043097;28;20116;-87
2020/12/07 05:29:15;;;;;;;7.50;5.35;;;;;;;;;;5034853;28;20049;-88
2020/12/07 05:31:41;;;;;;;7.90;4.80;;;;;;;;;;5040501;28;20068;-88
2020/12/07 05:34:07;;;;;;;8.20;5.32;;;;;;;;;;5055644;28;20408;-88
2020/12/07 05:36:44;;;;;;;7.95;5.70;;;;;;;;;;5054577;28;20044;-88
2020/12/07 05:41:50;;;;;;;7.72;5.53;;;;;;;;;;1052351;22;21637;-88
2020/12/07 05:44:18;;;;;;;8.00;5.38;;;;;;;;;;4994814;28;20064;-86
2020/12/07 05:46:45;;;;;;;8.20;5.70;;;;;;;;;;5000580;28;20046;-84
2020/12/07 05:49:14;;;;;;;7.30;5.22;;;;;;;;;;5024919;28;20052;-87
2020/12/07 05:51:41;;;;;;;8.90;6.00;;;;;;;;;;4992974;28;20409;-86
2020/12/07 05:54:08;;;;;;;7.30;5.32;;;;;;;;;;5012341;28;20100;-87
2020/12/07 05:56:34;;;;;;;6.93;5.07;;;;;;;;;;5013323;28;20073;-87
2020/12/07 05:59:07;;;;;;;6.88;4.63;;;;;;;;;;5031365;28;20064;-86
2020/12/07 06:01:36;;;;;;;8.55;5.45;;;;;;;;;;5028809;28;20129;-86
2020/12/07 06:04:04;;;;;;;6.90;4.85;;;;;;;;;;5048415;28;20432;-86
2020/12/07 06:06:31;;;;;;;8.07;5.82;;;;;;;;;;5051143;28;20203;-86
2020/12/07 06:08:59;;;;;;;8.93;6.53;;;;;;;;;;5034248;28;20045;-85
2020/12/07 06:11:26;;;;;;;7.80;5.68;;;;;;;;;;5034191;28;20493;-85
2020/12/07 06:13:53;;;;;;;7.35;5.53;;;;;;;;;;5019450;28;20056;-85
2020/12/07 06:16:19;;;;;;;6.85;5.10;;;;;;;;;;5003819;28;20060;-84
2020/12/07 06:18:46;;;;;;;8.43;5.75;;;;;;;;;;5037503;28;20046;-86
2020/12/07 06:21:16;;;;;;;9.05;6.72;;;;;;;;;;5017505;28;20555;-84
2020/12/07 06:23:43;;;;;;;11.80;8.27;;;;;;;;;;5001871;28;20049;-85
2020/12/07 06:26:11;;;;;;;14.15;8.32;;;;;;;;;;5035385;28;20046;-85
2020/12/07 06:28:38;;;;;;;10.73;6.85;;;;;;;;;;5035042;28;20477;-86
2020/12/07 06:31:06;;;;;;;8.50;5.88;;;;;;;;;;5018127;28;20053;-86
2020/12/07 06:33:38;;;;;;;8.75;6.10;;;;;;;;;;5015901;28;20057;-86
2020/12/07 06:36:04;;;;;;;11.52;7.55;;;;;;;;;;5018223;28;20061;-86
2020/12/07 06:38:39;;;;;;;15.25;10.88;;;;;;;;;;5033011;28;20054;-85
2020/12/07 06:41:05;;;;;;;11.50;8.05;;;;;;;;;;5033345;28;20448;-86
2020/12/07 06:43:33;;;;;;;9.50;6.13;;;;;;;;;;5034739;28;20045;-85
2020/12/07 06:45:59;;;;;;;10.98;7.20;;;;;;;;;;5040421;28;20071;-84
2020/12/07 06:48:26;;;;;;;8.10;6.00;;;;;;;;;;5039655;28;20052;-86
2020/12/07 06:50:54;;;;;;;9.70;6.32;;;;;;;;;;5037878;28;20040;-85
2020/12/07 06:53:41;;;;;;;10.43;7.05;;;;;;;;;;5052876;28;20045;-86
2020/12/07 06:56:08;;;;;;;9.02;6.47;;;;;;;;;;5055733;28;20055;-87
2020/12/07 06:58:35;;;;;;;10.80;6.70;;;;;;;;;;5042431;28;20100;-87
2020/12/07 07:01:12;;;;;;;12.38;7.85;;;;;;;;;;5036452;28;20529;-86
2020/12/07 07:03:48;;;;;;;11.68;8.48;;;;;;;;;;5043696;28;20097;-85
2020/12/07 07:06:18;;;;;;;11.98;7.88;;;;;;;;;;5038251;28;20125;-86
2020/12/07 07:08:45;;;;;;;11.88;7.82;;;;;;;;;;5033937;28;20294;-85
2020/12/07 07:11:11;;;;;;;12.52;7.97;;;;;;;;;;5036607;28;20057;-86
2020/12/07 07:13:37;;;;;;;12.85;8.15;;;;;;;;;;5039306;28;20057;-87
2020/12/07 07:16:05;;;;;;;12.15;7.80;;;;;;;;;;5036623;28;20041;-86
2020/12/07 07:18:31;;;;;;;10.95;7.07;;;;;;;;;;5036374;28;20552;-87
2020/12/07 07:21:00;;;;;;;10.85;7.32;;;;;;;;;;5035895;28;20046;-87
2020/12/07 07:23:27;;;;;;;12.68;8.10;;;;;;;;;;5016995;28;20046;-86
2020/12/07 07:25:57;;;;;;;15.65;8.13;;;;;;;;;;5039900;28;20080;-87
2020/12/07 07:28:23;;;;;;;12.25;8.07;;;;;;;;;;5040881;28;20068;-87
2020/12/07 07:30:49;;;;;;;12.38;7.93;;;;;;;;;;5053800;28;20045;-86
2020/12/07 07:33:15;;;;;;;12.90;8.30;;;;;;;;;;5020943;28;20068;-87
2020/12/07 07:35:41;;;;;;;11.57;7.65;;;;;;;;;;5020875;28;20064;-86
2020/12/07 07:38:07;;;;;;;13.52;8.35;;;;;;;;;;5038384;28;20045;-86
2020/12/07 07:40:33;;;;;;;11.60;7.70;;;;;;;;;;5036698;28;20204;-87
2020/12/07 07:43:02;;;;;;;15.32;8.57;;;;;;;;;;5037452;28;20103;-87
2020/12/07 07:45:31;;;;;;;13.50;8.77;;;;;;;;;;5020046;28;20635;-87
2020/12/07 07:48:02;;;;;;;12.38;8.13;;;;;;;;;;5019936;28;20084;-86
2020/12/07 07:50:54;;;;;;;11.50;7.53;;;;;;;;;;5037464;28;20054;-86
2020/12/07 08:03:00;;;;;;;11.30;8.18;;;;;;;;;;5036526;28;20107;-87
2020/12/07 08:16:16;;;;;;;12.25;8.00;;;;;;;;;;5037426;28;20049;-87
2020/12/07 08:18:44;;;;;;;12.88;8.60;;;;;;;;;;5036216;28;20059;-88
2020/12/07 08:21:10;;;;;;;17.20;9.15;;;;;;;;;;5027996;28;20463;-88
2020/12/07 08:23:37;;;;;;;11.43;7.28;;;;;;;;;;5056206;28;20049;-88
2020/12/07 08:26:04;;;;;;;11.18;7.22;;;;;;;;;;5046545;28;20494;-87
2020/12/07 08:28:32;;;;;;;14.40;9.52;;;;;;;;;;5035697;28;20041;-88
2020/12/07 08:31:05;;;;;;;11.20;7.72;;;;;;;;;;5002997;28;20180;-88
2020/12/07 08:33:33;;;;;;;11.98;8.20;;;;;;;;;;5034419;28;20042;-87
2020/12/07 08:36:01;;;;;;;10.75;6.75;;;;;;;;;;5017857;28;20099;-88
2020/12/07 08:38:28;;;;;;;14.90;8.63;;;;;;;;;;5019773;28;20103;-88
2020/12/07 08:40:54;;;;;;;11.20;7.35;;;;;;;;;;5035987;28;20041;-88
2020/12/07 08:43:21;;;;;;;14.02;9.57;;;;;;;;;;5017161;28;20057;-88
2020/12/07 08:45:47;;;;;;;13.48;7.90;;;;;;;;;;5014940;28;20048;-88
2020/12/07 08:48:13;;;;;;;10.43;6.93;;;;;;;;;;5033688;28;20052;-87
2020/12/07 08:50:40;;;;;;;11.20;7.28;;;;;;;;;;5024364;28;20045;-87
2020/12/07 08:53:06;;;;;;;9.30;7.10;;;;;;;;;;4998013;28;20057;-89
2020/12/07 08:55:32;;;;;;;12.30;7.63;;;;;;;;;;5034878;28;20500;-88
2020/12/07 08:57:59;;;;;;;12.68;8.00;;;;;;;;;;5019389;28;20046;-87
2020/12/07 09:00:25;;;;;;;13.60;8.55;;;;;;;;;;5017156;28;20516;-88
2020/12/07 09:02:51;;;;;;;13.77;8.00;;;;;;;;;;5036148;28;20076;-87
2020/12/07 09:05:17;;;;;;;14.60;7.75;;;;;;;;;;5034541;28;20053;-88
2020/12/07 09:07:44;;;;;;;9.65;6.10;;;;;;;;;;5034296;28;20049;-88
2020/12/07 09:10:10;;;;;;;10.10;6.63;;;;;;;;;;5036873;28;20045;-88
2020/12/07 09:12:36;;;;;;;9.82;6.68;;;;;;;;;;5018080;28;20652;-88
2020/12/07 09:15:03;;;;;;;10.30;7.00;;;;;;;;;;5034497;28;20375;-86
2020/12/07 09:17:30;;;;;;;10.75;6.90;;;;;;;;;;5015929;28;20049;-86
2020/12/07 09:19:56;;;;;;;9.15;6.60;;;;;;;;;;5016855;28;20532;-87
2020/12/07 09:22:22;;;;;;;13.05;8.48;;;;;;;;;;5022034;28;20057;-86
2020/12/07 09:24:49;;;;;;;11.43;7.10;;;;;;;;;;5001973;28;20049;-87
2020/12/07 09:27:15;;;;;;;11.88;7.53;;;;;;;;;;5022016;28;20056;-88
2020/12/07 09:29:41;;;;;;;12.30;7.97;;;;;;;;;;5028204;28;20045;-88
2020/12/07 09:32:07;;;;;;;13.02;8.65;;;;;;;;;;5018913;28;20647;-88
2020/12/07 09:34:33;;;;;;;9.82;6.32;;;;;;;;;;5001231;28;20136;-88
2020/12/07 09:36:59;;;;;;;11.93;7.00;;;;;;;;;;5034499;28;20049;-88
2020/12/07 09:39:25;;;;;;;11.02;7.03;;;;;;;;;;5034471;28;20107;-88
2020/12/07 09:41:52;;;;;;;10.02;6.38;;;;;;;;;;5034929;28;20052;-88
2020/12/07 09:44:18;;;;;;;9.32;6.28;;;;;;;;;;5017050;28;20052;-88
2020/12/07 09:46:44;;;;;;;11.85;6.65;;;;;;;;;;5016470;28;20053;-88
2020/12/07 09:49:10;;;;;;;10.40;6.78;;;;;;;;;;5034185;28;20077;-88
2020/12/07 09:51:36;;;;;;;10.00;6.97;;;;;;;;;;5034146;28;20118;-87
2020/12/07 09:54:03;;;;;;;10.32;6.78;;;;;;;;;;5030936;28;20052;-87
2020/12/07 09:56:29;;;;;;;10.40;7.13;;;;;;;;;;5035994;28;20049;-88
2020/12/07 09:59:01;;;;;;;9.35;6.75;;;;;;;;;;5046297;28;20049;-88
2020/12/07 10:01:27;;;;;;;9.52;6.55;;;;;;;;;;4997581;28;20054;-87
2020/12/07 10:03:53;;;;;;;9.85;6.57;;;;;;;;;;5034146;28;20457;-88
2020/12/07 10:06:20;;;;;;;11.30;7.05;;;;;;;;;;5033967;28;20132;-87
2020/12/07 10:08:46;;;;;;;10.45;7.07;;;;;;;;;;5016456;28;20048;-87
2020/12/07 10:11:15;;;;;;;10.35;6.82;;;;;;;;;;5016259;28;20059;-88
2020/12/07 10:13:42;;;;;;;10.00;6.68;;;;;;;;;;5033513;28;20053;-89
2020/12/07 10:16:09;;;;;;;9.55;7.07;;;;;;;;;;5015624;28;20045;-88
2020/12/07 10:18:35;;;;;;;10.30;7.05;;;;;;;;;;4999626;28;20077;-88
2020/12/07 10:21:01;;;;;;;10.20;6.43;;;;;;;;;;5015611;28;20413;-88
2020/12/07 10:23:27;;;;;;;10.07;7.50;;;;;;;;;;5015979;28;20139;-88
2020/12/07 10:25:53;;;;;;;9.38;6.75;;;;;;;;;;5032902;28;20081;-88
2020/12/07 10:28:20;;;;;;;11.57;7.47;;;;;;;;;;5016051;28;20056;-88
2020/12/07 10:30:46;;;;;;;9.20;6.13;;;;;;;;;;5032267;28;20061;-88
2020/12/07 10:33:13;;;;;;;10.93;6.65;;;;;;;;;;5032618;28;20061;-87
2020/12/07 10:35:39;;;;;;;8.30;5.93;;;;;;;;;;5032923;28;20075;-88
2020/12/07 10:38:05;;;;;;;7.30;5.05;;;;;;;;;;5033209;28;20493;-87
2020/12/07 10:40:32;;;;;;;8.35;5.88;;;;;;;;;;5033779;28;20061;-88
2020/12/07 10:42:59;;;;;;;10.75;6.90;;;;;;;;;;5015756;28;20081;-89
2020/12/07 10:45:26;;;;;;;9.25;6.72;;;;;;;;;;4999640;28;20485;-87
2020/12/07 10:47:53;;;;;;;10.50;6.45;;;;;;;;;;5016010;28;20044;-89
2020/12/07 10:50:20;;;;;;;8.07;6.30;;;;;;;;;;4999481;28;20148;-88
2020/12/07 10:52:46;;;;;;;10.18;6.60;;;;;;;;;;5033516;28;20064;-88
2020/12/07 10:55:13;;;;;;;9.98;5.95;;;;;;;;;;5038728;28;20049;-88
2020/12/07 10:57:39;;;;;;;9.82;6.93;;;;;;;;;;5035338;28;20050;-88
2020/12/07 11:00:06;;;;;;;10.35;5.95;;;;;;;;;;5019033;28;20054;-88
2020/12/07 11:02:32;;;;;;;8.18;5.65;;;;;;;;;;5037416;28;20041;-87
2020/12/07 11:04:58;;;;;;;11.60;6.20;;;;;;;;;;5020524;28;20057;-86
2020/12/07 11:07:26;;;;;;;8.63;5.85;;;;;;;;;;5038503;28;20474;-87
2020/12/07 11:09:53;;;;;;;9.23;6.43;;;;;;;;;;5037473;28;20404;-88
2020/12/07 11:12:21;;;;;;;9.95;7.10;;;;;;;;;;5019337;28;20049;-87
2020/12/07 11:14:47;;;;;;;12.15;7.80;;;;;;;;;;5020817;28;20041;-87
2020/12/07 11:17:13;;;;;;;10.32;6.45;;;;;;;;;;5020650;28;20049;-86
2020/12/07 11:19:42;;;;;;;7.47;5.57;;;;;;;;;;5037220;28;20057;-87
2020/12/07 11:22:10;;;;;;;9.38;5.78;;;;;;;;;;5021688;28;20065;-87
2020/12/07 11:24:38;;;;;;;7.75;5.25;;;;;;;;;;5037168;28;20382;-87
2020/12/07 11:27:05;;;;;;;9.13;6.75;;;;;;;;;;5037108;28;20058;-87
2020/12/07 11:29:32;;;;;;;8.00;5.30;;;;;;;;;;5036316;28;20424;-87
2020/12/07 11:31:58;;;;;;;7.40;5.10;;;;;;;;;;5018087;28;20045;-88
2020/12/07 11:34:24;;;;;;;9.10;6.00;;;;;;;;;;5035943;28;20053;-87
2020/12/07 11:36:50;;;;;;;9.38;5.30;;;;;;;;;;5037216;28;20080;-87
2020/12/07 11:39:34;;;;;;;10.73;5.38;;;;;;;;;;5037193;28;20053;-87
2020/12/07 11:44:45;;;;;;;8.23;5.80;;;;;;;;;;5026362;28;20080;-86
2020/12/07 11:47:13;;;;;;;8.75;6.20;;;;;;;;;;5028402;28;20500;-87
2020/12/07 11:49:39;;;;;;;11.02;6.88;;;;;;;;;;5029782;28;20777;-87
2020/12/07 11:52:06;;;;;;;9.80;6.50;;;;;;;;;;5038586;28;20053;-88
2020/12/07 11:54:33;;;;;;;8.15;5.45;;;;;;;;;;5038914;28;20516;-86
2020/12/07 11:57:04;;;;;;;7.97;5.22;;;;;;;;;;5037725;28;20448;-86
2020/12/07 11:59:30;;;;;;;7.63;5.60;;;;;;;;;;5019308;28;20133;-86
2020/12/07 12:01:56;;;;;;;9.25;5.95;;;;;;;;;;5018842;28;20523;-86
2020/12/07 12:04:22;;;;;;;7.30;5.32;;;;;;;;;;5042447;28;20052;-86
2020/12/07 12:06:48;;;;;;;8.02;5.72;;;;;;;;;;5027506;28;20060;-87
2020/12/07 12:09:15;;;;;;;9.20;5.93;;;;;;;;;;5035086;28;20409;-88
2020/12/07 12:11:43;;;;;;;12.85;7.78;;;;;;;;;;5048440;28;20053;-86
2020/12/07 12:14:10;;;;;;;9.75;7.05;;;;;;;;;;5050025;28;20048;-87
2020/12/07 12:16:39;;;;;;;9.18;6.25;;;;;;;;;;5055517;28;20092;-87
2020/12/07 12:19:12;;;;;;;8.45;6.13;;;;;;;;;;5047624;28;20092;-88
2020/12/07 12:21:39;;;;;;;9.20;6.07;;;;;;;;;;5036407;28;20120;-87
2020/12/07 12:24:06;;;;;;;8.63;6.03;;;;;;;;;;5036292;28;20072;-86
2020/12/07 12:26:33;;;;;;;8.55;5.70;;;;;;;;;;5049657;28;20057;-86
2020/12/07 12:28:59;;;;;;;11.80;5.60;;;;;;;;;;5036671;28;20111;-88
2020/12/07 12:31:26;;;;;;;8.68;6.20;;;;;;;;;;5055944;28;20413;-88
2020/12/07 12:33:53;;;;;;;8.32;5.60;;;;;;;;;;5039548;28;20046;-88
2020/12/07 12:36:21;;;;;;;12.23;6.00;;;;;;;;;;5035684;28;20111;-87
2020/12/07 12:38:47;;;;;;;9.07;6.82;;;;;;;;;;5018807;28;20111;-88
2020/12/07 12:41:14;;;;;;;10.40;7.90;;;;;;;;;;5036555;28;20057;-87
2020/12/07 12:43:40;;;;;;;14.75;9.77;;;;;;;;;;5037617;28;20057;-87
2020/12/07 12:46:07;;;;;;;13.27;9.88;;;;;;;;;;5039458;28;20056;-88
2020/12/07 12:48:35;;;;;;;7.88;6.00;;;;;;;;;;5037433;28;20060;-86
2020/12/07 12:51:01;;;;;;;8.57;5.55;;;;;;;;;;5019783;28;20189;-87
2020/12/07 12:53:27;;;;;;;10.95;6.40;;;;;;;;;;4999232;28;20116;-87
2020/12/07 12:55:54;;;;;;;10.38;6.38;;;;;;;;;;5028989;28;20054;-87
2020/12/07 12:58:20;;;;;;;23.40;7.72;;;;;;;;;;5019442;28;20064;-88
2020/12/07 13:00:46;;;;;;;10.77;7.15;;;;;;;;;;5037266;28;20049;-87
2020/12/07 13:03:12;;;;;;;9.50;7.10;;;;;;;;;;5019097;28;20409;-87
2020/12/07 13:05:39;;;;;;;9.15;7.00;;;;;;;;;;5017517;28;20053;-87
2020/12/07 13:08:05;;;;;;;11.98;6.53;;;;;;;;;;5036197;28;20064;-87
2020/12/07 13:10:31;;;;;;;9.52;6.75;;;;;;;;;;5018927;28;20056;-88
2020/12/07 13:12:57;;;;;;;10.18;7.72;;;;;;;;;;5035181;28;20131;-87
2020/12/07 13:15:25;;;;;;;11.55;7.57;;;;;;;;;;5018211;28;20061;-87
2020/12/07 13:17:55;;;;;;;10.35;6.82;;;;;;;;;;5038205;28;20073;-86
2020/12/07 13:20:27;;;;;;;13.63;7.65;;;;;;;;;;5018879;28;20057;-86
2020/12/07 13:23:03;;;;;;;9.77;6.80;;;;;;;;;;5049622;28;20060;-86
2020/12/07 13:25:37;;;;;;;12.17;8.23;;;;;;;;;;5040977;28;20045;-86
2020/12/07 13:28:11;;;;;;;20.98;11.35;;;;;;;;;;5041588;28;20053;-86
2020/12/07 13:30:37;;;;;;;8.32;5.95;;;;;;;;;;5037168;28;20045;-87
2020/12/07 13:33:04;;;;;;;12.35;8.63;;;;;;;;;;5056218;28;20045;-86
2020/12/07 13:35:30;;;;;;;10.90;7.45;;;;;;;;;;5039971;28;20057;-87
2020/12/07 13:37:58;;;;;;;9.82;6.95;;;;;;;;;;5009218;28;20098;-87
2020/12/07 13:40:24;;;;;;;8.70;5.93;;;;;;;;;;5049249;28;20053;-88
2020/12/07 13:42:50;;;;;;;10.27;8.32;;;;;;;;;;5038337;28;20041;-87
2020/12/07 13:45:16;;;;;;;12.18;9.60;;;;;;;;;;5055927;28;20080;-89
2020/12/07 13:47:42;;;;;;;11.70;8.38;;;;;;;;;;5055691;28;20107;-90
2020/12/07 13:50:08;;;;;;;11.07;7.90;;;;;;;;;;5037997;28;20037;-87
2020/12/07 13:52:34;;;;;;;10.93;8.23;;;;;;;;;;5053245;28;20084;-86
2020/12/07 13:55:01;;;;;;;12.80;7.80;;;;;;;;;;5022429;28;20050;-86
2020/12/07 13:57:27;;;;;;;9.65;7.22;;;;;;;;;;5021375;28;20060;-85
2020/12/07 13:59:53;;;;;;;12.82;7.15;;;;;;;;;;5048132;28;20060;-87
2020/12/07 14:02:19;;;;;;;9.10;6.80;;;;;;;;;;5039292;28;20049;-86
2020/12/07 14:04:51;;;;;;;14.05;7.70;;;;;;;;;;5042033;28;20045;-85
2020/12/07 14:07:18;;;;;;;12.88;7.75;;;;;;;;;;5039668;28;20049;-85
2020/12/07 14:09:44;;;;;;;11.13;7.20;;;;;;;;;;5051094;28;20527;-87
2020/12/07 14:12:11;;;;;;;10.98;8.00;;;;;;;;;;5020615;28;20057;-87
2020/12/07 14:14:37;;;;;;;10.65;7.45;;;;;;;;;;5037357;28;20050;-86
2020/12/07 14:17:06;;;;;;;12.18;6.93;;;;;;;;;;5018117;28;20042;-87
2020/12/07 14:19:37;;;;;;;10.95;7.53;;;;;;;;;;5018495;28;20053;-86
2020/12/07 14:22:31;;;;;;;31.95;9.10;;;;;;;;;;5003065;28;20049;-85
2020/12/07 14:25:11;;;;;;;9.73;6.88;;;;;;;;;;5009228;28;20512;-86
2020/12/07 14:30:36;;;;;;;20.45;12.30;;;;;;;;;;4996023;28;20469;-86
2020/12/07 14:41:11;;;;;;;13.55;9.90;;;;;;;;;;5028596;28;20080;-87
2020/12/07 14:43:37;;;;;;;11.82;8.95;;;;;;;;;;5020708;28;20049;-87
2020/12/07 14:46:08;;;;;;;10.95;8.00;;;;;;;;;;5020888;28;20111;-86
2020/12/07 14:48:36;;;;;;;10.45;8.25;;;;;;;;;;5038522;28;20424;-86
2020/12/07 14:51:09;;;;;;;15.40;9.60;;;;;;;;;;5021659;28;20064;-86
2020/12/07 14:53:35;;;;;;;12.35;8.10;;;;;;;;;;5023309;28;20099;-86
2020/12/07 14:56:06;;;;;;;13.18;8.65;;;;;;;;;;5041286;28;20069;-86
2020/12/07 15:01:54;;;;;;;12.48;9.00;;;;;;;;;;5025141;28;20136;-86
2020/12/07 15:07:12;;;;;;;11.23;7.82;;;;;;;;;;5013104;28;20076;-86
2020/12/07 15:12:49;;;;;;;12.52;8.13;;;;;;;;;;5038387;28;20068;-86
2020/12/07 15:15:14;;;;;;;11.73;8.00;;;;;;;;;;5037590;28;20073;-85
2020/12/07 15:17:41;;;;;;;11.45;8.68;;;;;;;;;;5038729;28;20130;-85
2020/12/07 15:20:07;;;;;;;11.55;8.35;;;;;;;;;;5036830;28;20497;-88
2020/12/07 15:22:33;;;;;;;12.05;9.20;;;;;;;;;;5034216;28;20080;-87